Time;durP1;ratioP1;P1;durP2;ratioP2;P2;SDS_P1;SDS_P2;PMS_P1;PMS_P2;Temp;Humidity;BMP_temperature;BMP_pressure;BME280_temperature;BME280_humidity;BME280_pressure;Samples;Min_cycle;Max_cycle;Signal;HPM_P1;HPM_P2
2023/04/02 00:02:28;;;;;;;14.80;11.77;;;6.90;99.90;;;;;;5008303;28;20101;-73
2023/04/02 00:05:15;;;;;;;14.65;11.85;;;7.00;99.90;;;;;;5003335;28;20553;-73
2023/04/02 00:07:43;;;;;;;16.73;13.00;;;6.90;99.90;;;;;;5005338;28;20034;-73
2023/04/02 00:10:38;;;;;;;15.27;11.95;;;6.90;99.90;;;;;;5000715;28;20030;-73
2023/04/02 00:13:35;;;;;;;16.88;12.20;;;6.90;99.90;;;;;;5010944;28;20389;-72
2023/04/02 00:16:03;;;;;;;14.57;11.30;;;6.90;99.90;;;;;;4993057;28;20030;-73
2023/04/02 00:18:29;;;;;;;16.40;12.20;;;6.90;99.90;;;;;;5004515;28;20057;-72
2023/04/02 00:21:20;;;;;;;15.98;12.95;;;6.80;99.90;;;;;;5005964;28;20037;-72
2023/04/02 00:23:46;;;;;;;14.65;11.23;;;6.90;99.90;;;;;;5011073;28;20080;-73
2023/04/02 00:26:23;;;;;;;18.25;12.40;;;6.80;99.90;;;;;;5009370;28;20026;-73
2023/04/02 00:28:50;;;;;;;15.25;11.15;;;6.80;99.90;;;;;;5010221;28;20037;-73
2023/04/02 00:31:18;;;;;;;16.10;10.40;;;6.80;99.90;;;;;;4997823;28;20033;-73
2023/04/02 00:33:45;;;;;;;15.93;11.90;;;6.70;99.90;;;;;;5008683;28;20045;-73
2023/04/02 00:36:11;;;;;;;14.38;11.40;;;6.70;99.90;;;;;;5005062;28;20036;-73
2023/04/02 00:38:39;;;;;;;14.60;10.50;;;6.60;99.90;;;;;;5003762;28;20038;-73
2023/04/02 00:41:06;;;;;;;15.23;10.98;;;6.60;99.90;;;;;;5000963;28;20429;-73
2023/04/02 00:43:37;;;;;;;14.73;10.73;;;6.50;99.90;;;;;;5004029;28;20113;-73
2023/04/02 00:46:16;;;;;;;14.45;10.93;;;6.50;99.90;;;;;;4993257;28;20026;-72
2023/04/02 00:48:45;;;;;;;12.50;9.10;;;6.50;99.90;;;;;;5009455;28;20509;-72
2023/04/02 00:51:22;;;;;;;10.93;8.90;;;6.50;99.90;;;;;;5004962;28;20099;-72
2023/04/02 00:53:50;;;;;;;11.32;7.53;;;6.50;99.90;;;;;;5009597;28;20029;-73
2023/04/02 00:56:44;;;;;;;10.65;7.72;;;6.50;99.90;;;;;;5010871;28;20026;-72
2023/04/02 00:59:25;;;;;;;11.98;7.85;;;6.50;99.90;;;;;;5009574;28;20050;-73
2023/04/02 01:02:18;;;;;;;12.37;7.60;;;6.50;99.90;;;;;;5004288;28;20031;-73
2023/04/02 01:04:56;;;;;;;13.63;8.70;;;6.50;99.90;;;;;;5008369;28;20033;-73
2023/04/02 01:07:46;;;;;;;11.85;8.52;;;6.50;99.90;;;;;;5011855;28;20034;-73
2023/04/02 01:10:37;;;;;;;10.15;7.85;;;6.50;99.90;;;;;;5006740;28;20121;-73
2023/04/02 01:13:29;;;;;;;12.80;9.15;;;6.50;99.90;;;;;;5007487;28;20053;-73
2023/04/02 01:16:04;;;;;;;11.38;8.90;;;6.50;99.90;;;;;;5009301;28;20084;-73
2023/04/02 01:18:37;;;;;;;11.88;8.65;;;6.40;99.90;;;;;;5009458;28;20447;-73
2023/04/02 01:21:29;;;;;;;;;;;6.40;99.90;;;;;;5012025;28;20336;-73
2023/04/02 01:24:07;;;;;;;13.00;8.80;;;6.40;99.90;;;;;;5007299;28;19909;-73
2023/04/02 01:26:44;;;;;;;12.45;8.82;;;6.40;99.90;;;;;;5009960;28;20453;-73
2023/04/02 01:29:14;;;;;;;12.48;9.02;;;6.40;99.90;;;;;;5009113;28;20030;-73
2023/04/02 01:31:41;;;;;;;12.52;9.02;;;6.40;99.90;;;;;;5000686;28;20033;-73
2023/04/02 01:34:10;;;;;;;13.80;9.48;;;6.40;99.90;;;;;;5009485;28;20056;-73
2023/04/02 01:36:40;;;;;;;14.65;10.40;;;6.40;99.90;;;;;;5008509;28;20498;-73
2023/04/02 01:39:38;;;;;;;13.32;10.07;;;6.40;99.90;;;;;;5003871;28;20133;-72
2023/04/02 01:42:20;;;;;;;12.80;9.82;;;6.40;99.90;;;;;;5000489;28;20030;-72
2023/04/02 01:44:49;;;;;;;11.88;9.57;;;6.30;99.90;;;;;;5007512;28;20389;-73
2023/04/02 01:47:20;;;;;;;10.82;8.48;;;6.30;99.90;;;;;;5002101;28;20057;-72
2023/04/02 01:49:46;;;;;;;11.68;8.38;;;6.30;99.90;;;;;;5004979;28;20117;-73
2023/04/02 01:52:25;;;;;;;11.55;8.93;;;6.30;99.90;;;;;;5012768;28;20456;-73
2023/04/02 01:54:51;;;;;;;12.38;8.98;;;6.20;99.90;;;;;;5009953;28;20374;-73
2023/04/02 01:57:17;;;;;;;11.27;8.15;;;6.20;99.90;;;;;;5006065;28;20036;-72
2023/04/02 01:59:44;;;;;;;12.77;9.00;;;6.20;99.90;;;;;;5011632;28;20058;-73
2023/04/02 02:02:12;;;;;;;14.27;8.45;;;6.20;99.90;;;;;;5000332;28;20029;-72
2023/04/02 02:04:38;;;;;;;12.40;8.77;;;6.20;99.90;;;;;;5007234;28;20379;-73
2023/04/02 02:07:04;;;;;;;12.20;8.77;;;6.20;99.90;;;;;;5008083;28;20032;-73
2023/04/02 02:09:34;;;;;;;14.73;8.70;;;6.20;99.90;;;;;;5003895;28;20100;-72
2023/04/02 02:12:02;;;;;;;10.05;7.68;;;6.20;99.90;;;;;;5002896;28;20038;-73
2023/04/02 02:14:29;;;;;;;10.70;8.02;;;6.10;99.90;;;;;;5007421;28;20155;-73
2023/04/02 02:17:00;;;;;;;12.00;7.88;;;6.10;99.90;;;;;;5005872;28;20030;-72
2023/04/02 02:19:35;;;;;;;13.07;8.52;;;6.10;99.90;;;;;;5005465;28;20490;-72
2023/04/02 02:22:27;;;;;;;11.05;8.15;;;6.00;99.90;;;;;;4999118;28;20119;-72
2023/04/02 02:24:55;;;;;;;11.45;8.38;;;6.00;99.90;;;;;;5010109;28;20060;-72
2023/04/02 02:27:24;;;;;;;11.25;8.52;;;6.00;99.90;;;;;;5009085;28;20028;-73
2023/04/02 02:30:01;;;;;;;12.32;8.52;;;6.00;99.90;;;;;;5014280;28;20029;-73
2023/04/02 02:32:29;;;;;;;12.90;8.63;;;6.00;99.90;;;;;;5002149;28;20069;-73
2023/04/02 02:35:14;;;;;;;13.30;8.88;;;6.00;99.90;;;;;;5006461;28;20584;-72
2023/04/02 02:37:44;;;;;;;13.38;8.77;;;6.00;99.90;;;;;;5001963;28;20026;-72
2023/04/02 02:40:19;;;;;;;11.07;7.43;;;5.90;99.90;;;;;;5002695;28;20026;-72
2023/04/02 02:43:00;;;;;;;11.10;8.57;;;5.90;99.90;;;;;;5008745;28;20029;-72
2023/04/02 02:45:30;;;;;;;12.00;8.98;;;5.90;99.90;;;;;;5004863;28;20054;-72
2023/04/02 02:47:57;;;;;;;11.75;8.55;;;5.90;99.90;;;;;;5011766;28;20026;-72
2023/04/02 02:50:30;;;;;;;12.82;8.98;;;5.90;99.90;;;;;;4998562;28;20027;-73
2023/04/02 02:52:58;;;;;;;13.93;9.80;;;5.90;99.90;;;;;;5009669;28;20864;-73
2023/04/02 02:55:28;;;;;;;11.05;8.15;;;5.90;99.90;;;;;;5002471;28;20050;-73
2023/04/02 02:58:00;;;;;;;12.93;9.43;;;5.90;99.90;;;;;;5010574;28;20040;-72
2023/04/02 03:00:26;;;;;;;16.58;11.05;;;5.90;99.90;;;;;;5002162;28;20385;-73
2023/04/02 03:02:55;;;;;;;17.05;11.98;;;5.90;99.90;;;;;;5007970;28;20042;-72
2023/04/02 03:05:23;;;;;;;19.80;12.88;;;5.90;99.90;;;;;;5011832;28;20028;-73
2023/04/02 03:07:52;;;;;;;17.30;12.38;;;5.90;99.90;;;;;;5001858;28;20565;-72
2023/04/02 03:10:23;;;;;;;18.67;13.38;;;5.90;99.90;;;;;;5004729;28;20022;-73
2023/04/02 03:13:34;;;;;;;19.92;13.90;;;5.90;99.90;;;;;;5010261;28;20096;-72
2023/04/02 03:16:32;;;;;;;23.42;14.95;;;5.90;99.90;;;;;;4994013;28;20042;-72
2023/04/02 03:19:06;;;;;;;17.05;13.60;;;5.90;99.90;;;;;;4994827;28;20115;-73
2023/04/02 03:21:48;;;;;;;21.00;15.35;;;5.80;99.90;;;;;;4998583;28;20057;-73
2023/04/02 03:24:31;;;;;;;20.98;13.93;;;5.90;99.90;;;;;;5033291;28;20022;-73
2023/04/02 03:27:09;;;;;;;23.80;15.05;;;5.80;99.90;;;;;;5006994;28;20034;-73
2023/04/02 03:29:39;;;;;;;19.13;13.10;;;5.80;99.90;;;;;;5001119;28;20023;-73
2023/04/02 03:32:11;;;;;;;21.80;12.90;;;5.80;99.90;;;;;;5009758;28;20046;-72
2023/04/02 03:34:43;;;;;;;14.50;10.73;;;5.80;99.90;;;;;;5012460;28;20033;-72
2023/04/02 03:37:38;;;;;;;15.07;10.80;;;5.70;99.90;;;;;;5013087;28;20030;-73
2023/04/02 03:40:21;;;;;;;17.08;10.45;;;5.60;99.90;;;;;;5000825;28;20061;-78
2023/04/02 03:42:54;;;;;;;15.07;10.55;;;5.60;99.90;;;;;;5010307;28;20022;-73
2023/04/02 03:45:27;;;;;;;14.77;9.35;;;5.60;99.90;;;;;;5004159;28;20022;-72
2023/04/02 03:48:04;;;;;;;14.82;9.50;;;5.60;99.90;;;;;;5001092;28;20521;-72
2023/04/02 03:50:55;;;;;;;13.07;8.93;;;5.60;99.90;;;;;;4999952;28;20030;-72
2023/04/02 03:53:25;;;;;;;8.75;6.40;;;5.50;99.90;;;;;;5007243;28;20034;-73
2023/04/02 03:55:52;;;;;;;9.90;6.82;;;5.50;99.90;;;;;;4997981;28;20809;-73
2023/04/02 03:58:45;;;;;;;13.68;7.25;;;5.40;99.90;;;;;;5008594;28;20050;-72
2023/04/02 04:01:38;;;;;;;9.05;6.43;;;5.40;99.90;;;;;;5005015;28;20026;-72
2023/04/02 04:04:14;;;;;;;10.63;6.50;;;5.40;99.90;;;;;;5008755;28;20034;-73
2023/04/02 04:06:42;;;;;;;9.77;6.40;;;5.30;99.90;;;;;;5015054;28;20085;-73
2023/04/02 04:09:35;;;;;;;11.05;6.68;;;5.30;99.90;;;;;;5007173;28;20030;-73
2023/04/02 04:12:27;;;;;;;9.77;6.72;;;5.30;99.90;;;;;;5009870;28;20037;-72
2023/04/02 04:15:00;;;;;;;8.80;6.10;;;5.30;99.90;;;;;;5001111;28;20038;-72
2023/04/02 04:17:33;;;;;;;9.85;7.13;;;5.30;99.90;;;;;;4995670;28;20026;-73
2023/04/02 04:20:23;;;;;;;10.75;7.20;;;5.30;99.90;;;;;;4999226;28;20089;-75
2023/04/02 04:22:54;;;;;;;10.98;7.15;;;5.30;99.90;;;;;;5001229;28;20386;-73
2023/04/02 04:25:32;;;;;;;10.65;7.70;;;5.30;99.90;;;;;;5001906;28;20080;-73
2023/04/02 04:28:06;;;;;;;10.57;7.40;;;5.30;99.90;;;;;;5037766;28;20126;-74
2023/04/02 04:31:00;;;;;;;14.43;8.95;;;5.30;99.90;;;;;;5003234;28;20116;-73
2023/04/02 04:33:38;;;;;;;14.05;9.82;;;5.30;99.90;;;;;;5011652;28;20026;-73
2023/04/02 04:36:14;;;;;;;16.25;10.95;;;5.30;99.90;;;;;;5011669;28;20038;-73
2023/04/02 04:38:45;;;;;;;14.98;10.85;;;5.30;99.90;;;;;;4995980;28;20117;-73
2023/04/02 04:41:17;;;;;;;21.92;11.18;;;5.30;99.90;;;;;;4990877;28;20037;-73
2023/04/02 04:43:51;;;;;;;15.25;10.13;;;5.20;99.90;;;;;;5002582;28;20033;-73
2023/04/02 04:46:24;;;;;;;14.23;10.68;;;5.20;99.90;;;;;;5011844;28;20076;-73
2023/04/02 04:49:07;;;;;;;15.05;10.48;;;5.20;99.90;;;;;;5002854;28;20033;-74
2023/04/02 04:51:43;;;;;;;14.88;9.75;;;5.20;99.90;;;;;;5013341;28;20129;-73
2023/04/02 04:54:12;;;;;;;15.88;10.35;;;5.10;99.90;;;;;;5001014;28;20022;-73
2023/04/02 04:56:38;;;;;;;11.95;8.63;;;5.10;99.90;;;;;;5006748;28;20029;-73
2023/04/02 04:59:14;;;;;;;11.65;8.73;;;5.10;99.90;;;;;;5012683;28;20532;-73
2023/04/02 05:01:42;;;;;;;13.13;9.13;;;5.00;99.90;;;;;;5014155;28;20037;-73
2023/04/02 05:04:37;;;;;;;13.43;7.57;;;5.10;99.90;;;;;;5014800;28;20034;-73
2023/04/02 05:07:18;;;;;;;11.93;8.40;;;5.00;99.90;;;;;;5012712;28;20577;-73
2023/04/02 05:09:54;;;;;;;11.45;7.72;;;5.00;99.90;;;;;;5008566;28;20084;-73
2023/04/02 05:12:41;;;;;;;12.40;7.75;;;5.00;99.90;;;;;;4996934;28;20050;-73
2023/04/02 05:15:28;;;;;;;11.68;8.30;;;5.00;99.90;;;;;;5009287;28;20038;-73
2023/04/02 05:18:16;;;;;;;12.60;8.38;;;5.00;99.90;;;;;;5008410;28;20757;-73
2023/04/02 05:20:52;;;;;;;15.07;7.10;;;4.90;99.90;;;;;;5021313;28;20030;-73
2023/04/02 05:23:33;;;;;;;12.57;7.20;;;4.90;99.90;;;;;;5008197;28;20505;-73
2023/04/02 05:26:07;;;;;;;13.63;6.47;;;4.90;99.90;;;;;;5005534;28;20053;-73
2023/04/02 05:28:36;;;;;;;12.32;6.65;;;4.80;99.90;;;;;;5011909;28;20026;-73
2023/04/02 05:31:11;;;;;;;11.57;7.28;;;4.80;99.90;;;;;;5000289;28;20184;-73
2023/04/02 05:33:38;;;;;;;9.93;6.55;;;4.80;99.90;;;;;;5006699;28;20108;-73
2023/04/02 05:36:10;;;;;;;12.40;6.43;;;4.80;99.90;;;;;;5002057;28;20485;-73
2023/04/02 05:38:38;;;;;;;10.77;5.78;;;4.80;99.90;;;;;;5001289;28;20034;-74
2023/04/02 05:41:07;;;;;;;10.48;4.72;;;4.70;99.90;;;;;;5000831;28;20027;-73
2023/04/02 05:43:35;;;;;;;12.90;4.95;;;4.70;99.90;;;;;;5001517;28;20481;-73
2023/04/02 05:46:12;;;;;;;6.95;4.47;;;4.60;99.90;;;;;;5007602;28;21395;-73
2023/04/02 05:48:42;;;;;;;6.63;3.85;;;4.60;99.90;;;;;;5000371;28;20026;-73
2023/04/02 05:51:15;;;;;;;7.35;4.00;;;4.50;99.90;;;;;;5007798;28;20025;-73
2023/04/02 05:53:58;;;;;;;8.95;3.92;;;4.50;99.90;;;;;;5013367;28;20072;-74
2023/04/02 05:56:36;;;;;;;8.15;2.92;;;4.50;99.90;;;;;;4999333;28;20026;-73
2023/04/02 05:59:18;;;;;;;11.05;3.60;;;4.40;99.90;;;;;;4995989;28;20482;-73
2023/04/02 06:02:01;;;;;;;7.20;3.55;;;4.40;99.90;;;;;;5010820;28;20465;-73
2023/04/02 06:04:40;;;;;;;8.40;4.00;;;4.40;99.90;;;;;;5013466;28;20036;-73
2023/04/02 06:07:12;;;;;;;5.93;3.10;;;4.40;99.90;;;;;;5013544;28;20057;-73
2023/04/02 06:09:41;;;;;;;4.72;2.42;;;4.40;99.90;;;;;;5007665;28;20418;-73
2023/04/02 06:12:37;;;;;;;7.18;3.08;;;4.40;99.90;;;;;;4999253;28;20034;-73
2023/04/02 06:15:05;;;;;;;6.45;2.58;;;4.40;99.90;;;;;;5004756;28;20044;-73
2023/04/02 06:17:42;;;;;;;7.10;3.20;;;4.40;99.90;;;;;;5010670;28;20095;-73
2023/04/02 06:20:14;;;;;;;5.47;2.40;;;4.40;99.90;;;;;;5011362;28;20046;-72
2023/04/02 06:22:44;;;;;;;5.65;2.58;;;4.40;99.90;;;;;;5008889;28;20057;-73
2023/04/02 06:25:20;;;;;;;5.63;2.50;;;4.40;99.90;;;;;;5013865;28;20029;-73
2023/04/02 06:27:47;;;;;;;6.07;3.15;;;4.40;99.90;;;;;;5011848;28;20049;-73
2023/04/02 06:30:19;;;;;;;5.18;1.83;;;4.40;99.90;;;;;;5007984;28;20038;-74
2023/04/02 06:32:44;;;;;;;5.28;2.15;;;4.40;99.90;;;;;;5009141;28;20022;-73
2023/04/02 06:35:14;;;;;;;8.15;1.88;;;4.40;99.90;;;;;;5010447;28;20492;-72
2023/04/02 06:37:44;;;;;;;5.93;2.35;;;4.30;99.90;;;;;;4999653;28;20148;-73
2023/04/02 06:40:40;;;;;;;5.15;1.60;;;4.40;99.90;;;;;;5004089;28;20048;-74
2023/04/02 06:43:26;;;;;;;5.50;1.88;;;4.40;99.90;;;;;;5013103;28;20554;-73
2023/04/02 06:45:56;;;;;;;7.78;1.88;;;4.40;99.90;;;;;;5011653;28;20483;-71
2023/04/02 06:48:23;;;;;;;3.88;1.58;;;4.40;99.90;;;;;;5004526;28;20036;-71
2023/04/02 06:50:58;;;;;;;4.97;1.45;;;4.40;99.90;;;;;;4999070;28;20087;-72
2023/04/02 06:53:33;;;;;;;5.15;1.42;;;4.40;99.90;;;;;;5011345;28;20040;-72
2023/04/02 06:56:39;;;;;;;5.57;1.48;;;4.50;99.90;;;;;;5012559;28;20029;-72
2023/04/02 06:59:06;;;;;;;4.68;1.13;;;4.50;99.90;;;;;;4999063;28;20045;-72
2023/04/02 07:01:37;;;;;;;3.10;1.00;;;4.50;99.90;;;;;;5006386;28;20390;-72
2023/04/02 07:04:03;;;;;;;4.47;1.30;;;4.50;99.90;;;;;;5008991;28;20505;-72
2023/04/02 07:06:28;;;;;;;3.30;1.10;;;4.40;99.90;;;;;;5003410;28;20277;-72
2023/04/02 07:08:54;;;;;;;5.85;1.10;;;4.30;99.90;;;;;;5002898;28;20039;-72
2023/04/02 07:11:21;;;;;;;5.00;1.40;;;4.30;99.90;;;;;;4999345;28;20029;-72
2023/04/02 07:13:49;;;;;;;6.85;1.10;;;4.30;99.90;;;;;;4999486;28;20590;-72
2023/04/02 07:16:18;;;;;;;6.93;1.20;;;4.20;99.90;;;;;;4997754;28;20112;-72
2023/04/02 07:18:44;;;;;;;2.53;0.70;;;4.20;99.90;;;;;;5000762;28;20060;-73
2023/04/02 07:21:10;;;;;;;6.22;1.10;;;4.20;99.90;;;;;;5009961;28;20026;-73
2023/04/02 07:23:36;;;;;;;3.92;1.42;;;4.10;99.90;;;;;;4991808;28;20030;-71
2023/04/02 07:26:07;;;;;;;3.58;1.00;;;4.10;99.90;;;;;;5005893;28;20022;-74
2023/04/02 07:28:32;;;;;;;2.67;0.70;;;4.20;99.90;;;;;;5006845;28;20022;-74
2023/04/02 07:30:59;;;;;;;5.05;0.85;;;4.20;99.90;;;;;;4994249;28;20530;-72
2023/04/02 07:33:27;;;;;;;6.38;1.23;;;4.20;99.90;;;;;;5002721;28;20047;-72
2023/04/02 07:35:54;;;;;;;6.47;0.93;;;4.20;99.90;;;;;;5007190;28;20534;-72
2023/04/02 07:38:20;;;;;;;5.47;0.90;;;4.20;99.90;;;;;;5008427;28;20034;-72
2023/04/02 07:40:46;;;;;;;4.53;0.90;;;4.20;99.90;;;;;;5012173;28;20037;-72
2023/04/02 07:43:12;;;;;;;3.78;0.90;;;4.30;99.90;;;;;;5010169;28;20022;-72
2023/04/02 07:45:37;;;;;;;11.50;2.20;;;4.30;99.90;;;;;;5010723;28;20029;-72
2023/04/02 07:48:08;;;;;;;3.15;0.93;;;4.30;99.90;;;;;;5005681;28;20398;-71
2023/04/02 07:50:34;;;;;;;4.45;0.98;;;4.40;99.90;;;;;;5005737;28;20034;-72
2023/04/02 07:53:00;;;;;;;4.38;0.88;;;4.40;99.90;;;;;;5011044;28;20025;-72
2023/04/02 07:55:25;;;;;;;3.55;1.00;;;4.40;99.90;;;;;;4991061;28;20037;-72
2023/04/02 07:57:53;;;;;;;4.55;1.13;;;4.40;99.90;;;;;;4990772;28;20023;-72
2023/04/02 08:00:20;;;;;;;4.90;0.63;;;4.40;99.90;;;;;;4991882;28;20034;-72
2023/04/02 08:02:46;;;;;;;6.63;1.42;;;4.40;99.90;;;;;;5011053;28;20030;-72
2023/04/02 08:05:12;;;;;;;6.53;0.98;;;4.40;99.90;;;;;;5011080;28;20026;-73
2023/04/02 08:07:38;;;;;;;4.00;1.15;;;4.30;99.90;;;;;;5011153;28;20117;-72
2023/04/02 08:10:05;;;;;;;3.70;0.95;;;4.40;99.90;;;;;;5005640;28;20030;-72
2023/04/02 08:12:30;;;;;;;4.35;1.20;;;4.40;99.90;;;;;;5011011;28;20045;-73
2023/04/02 08:14:56;;;;;;;5.35;1.08;;;4.50;99.90;;;;;;5000629;28;20084;-73
2023/04/02 08:17:22;;;;;;;5.80;1.20;;;4.50;99.90;;;;;;5010963;28;20429;-73
2023/04/02 08:19:47;;;;;;;3.35;1.05;;;4.60;99.90;;;;;;5009061;28;20375;-73
2023/04/02 08:22:13;;;;;;;4.82;1.25;;;4.70;99.90;;;;;;5025867;28;20034;-73
2023/04/02 08:24:38;;;;;;;7.72;1.50;;;4.70;99.90;;;;;;5008466;28;20038;-73
2023/04/02 08:27:04;;;;;;;7.15;1.40;;;4.80;99.90;;;;;;5010920;28;20091;-73
2023/04/02 08:29:31;;;;;;;5.93;1.52;;;4.80;99.90;;;;;;5009229;28;20116;-72
2023/04/02 08:32:00;;;;;;;5.32;1.45;;;4.80;99.90;;;;;;5002816;28;20026;-72
2023/04/02 08:34:27;;;;;;;3.75;0.85;;;4.80;99.90;;;;;;5006783;28;20041;-72
2023/04/02 08:36:56;;;;;;;4.43;1.20;;;4.80;99.90;;;;;;5002670;28;20031;-73
2023/04/02 08:39:28;;;;;;;3.17;1.13;;;4.70;99.90;;;;;;5011016;28;20125;-72
2023/04/02 08:42:32;;;;;;;5.18;1.40;;;4.60;99.90;;;;;;5010557;28;20171;-72
2023/04/02 08:45:31;;;;;;;6.40;1.92;;;4.60;99.90;;;;;;5003033;28;20034;-73
2023/04/02 08:47:58;;;;;;;3.95;1.38;;;4.60;99.90;;;;;;5012921;28;20038;-72
2023/04/02 08:50:32;;;;;;;4.25;1.40;;;4.60;99.90;;;;;;5001692;28;20034;-72
2023/04/02 08:53:01;;;;;;;8.13;1.60;;;4.70;99.90;;;;;;5008660;28;20025;-73
2023/04/02 08:55:41;;;;;;;4.80;1.35;;;4.70;99.90;;;;;;5001882;28;20029;-72
2023/04/02 08:58:38;;;;;;;4.38;1.02;;;4.80;99.90;;;;;;4996636;28;20034;-72
2023/04/02 09:01:06;;;;;;;5.22;1.23;;;4.80;99.90;;;;;;5005527;28;20029;-72
2023/04/02 09:03:43;;;;;;;3.60;1.00;;;4.80;99.90;;;;;;5011462;28;20385;-72
2023/04/02 09:06:13;;;;;;;3.65;0.82;;;4.90;99.90;;;;;;5010293;28;20022;-73
2023/04/02 09:08:42;;;;;;;7.18;1.30;;;4.90;99.90;;;;;;5010256;28;20030;-73
2023/04/02 09:11:20;;;;;;;3.25;1.20;;;4.90;99.90;;;;;;5003954;28;20036;-73
2023/04/02 09:13:50;;;;;;;4.35;1.00;;;4.90;99.90;;;;;;5021486;28;20129;-73
2023/04/02 09:16:21;;;;;;;2.67;1.00;;;4.90;99.90;;;;;;5013920;28;20593;-72
2023/04/02 09:18:47;;;;;;;3.13;0.90;;;4.90;99.90;;;;;;5007169;28;20072;-72
2023/04/02 09:21:33;;;;;;;3.67;0.95;;;5.00;99.90;;;;;;5006092;28;20831;-72
2023/04/02 09:23:59;;;;;;;3.22;0.52;;;4.90;99.90;;;;;;5002345;28;20029;-72
2023/04/02 09:26:29;;;;;;;4.00;0.73;;;5.00;99.90;;;;;;5010496;28;20053;-72
2023/04/02 09:29:34;;;;;;;6.05;1.13;;;5.00;99.90;;;;;;5009304;28;20173;-73
2023/04/02 09:32:18;;;;;;;3.85;0.95;;;5.10;99.90;;;;;;5010272;28;20041;-73
2023/04/02 09:34:44;;;;;;;6.75;1.50;;;5.20;99.90;;;;;;5014176;28;20555;-72
2023/04/02 09:37:24;;;;;;;3.92;0.70;;;5.20;99.90;;;;;;5010403;28;20026;-72
2023/04/02 09:39:49;;;;;;;4.95;1.50;;;5.30;99.90;;;;;;5009484;28;20042;-72
2023/04/02 09:42:32;;;;;;;4.18;1.58;;;5.30;99.90;;;;;;5012633;28;20128;-72
2023/04/02 09:45:22;;;;;;;7.28;1.80;;;5.30;99.90;;;;;;5013952;28;20041;-72
2023/04/02 09:47:50;;;;;;;2.78;1.35;;;5.40;99.90;;;;;;5003349;28;20045;-73
2023/04/02 09:50:32;;;;;;;3.88;1.40;;;5.50;99.90;;;;;;5012197;28;20092;-72
2023/04/02 09:53:15;;;;;;;4.65;1.85;;;5.50;99.90;;;;;;5004239;28;20061;-72
2023/04/02 09:55:41;;;;;;;5.07;1.80;;;5.40;99.90;;;;;;5005438;28;20018;-72
2023/04/02 09:58:15;;;;;;;5.57;1.70;;;5.40;99.90;;;;;;5006283;28;20545;-72
2023/04/02 10:00:51;;;;;;;3.85;1.33;;;5.40;99.90;;;;;;5005367;28;20519;-72
2023/04/02 10:03:30;;;;;;;6.30;1.48;;;5.40;99.90;;;;;;5013381;28;20069;-72
2023/04/02 10:06:11;;;;;;;4.75;1.17;;;5.50;99.90;;;;;;5010693;28;20062;-72
2023/04/02 10:08:38;;;;;;;8.48;1.80;;;5.60;99.90;;;;;;5003773;28;20053;-72
2023/04/02 10:11:12;;;;;;;6.35;1.83;;;5.70;99.90;;;;;;5013411;28;20030;-72
2023/04/02 10:13:58;;;;;;;7.35;1.75;;;5.70;99.90;;;;;;5010164;28;20046;-72
2023/04/02 10:16:31;;;;;;;6.93;1.33;;;5.80;99.90;;;;;;5013052;28;20490;-72
2023/04/02 10:19:12;;;;;;;5.03;1.17;;;5.90;99.90;;;;;;5011105;28;20037;-72
2023/04/02 10:21:40;;;;;;;4.97;1.33;;;6.00;99.90;;;;;;5013945;28;20391;-72
2023/04/02 10:24:13;;;;;;;2.83;0.85;;;6.10;99.90;;;;;;5008076;28;20022;-72
2023/04/02 10:27:08;;;;;;;3.92;1.15;;;6.20;99.90;;;;;;5010827;28;20037;-72
2023/04/02 10:30:11;;;;;;;4.97;0.90;;;6.20;99.90;;;;;;5013064;28;20037;-72
2023/04/02 10:32:55;;;;;;;3.47;0.82;;;6.30;99.90;;;;;;4998908;28;20030;-72
2023/04/02 10:35:33;;;;;;;5.05;0.95;;;6.40;99.90;;;;;;5007453;28;20061;-72
2023/04/02 10:38:20;;;;;;;4.60;0.80;;;6.40;99.90;;;;;;4993392;28;20042;-72
2023/04/02 10:40:51;;;;;;;6.00;1.58;;;6.50;99.90;;;;;;5006430;28;20069;-72
2023/04/02 10:43:20;;;;;;;4.72;1.20;;;6.50;99.90;;;;;;5010548;28;20100;-72
2023/04/02 10:46:08;;;;;;;6.05;1.23;;;6.40;99.90;;;;;;5009541;28;20021;-72
2023/04/02 10:48:49;;;;;;;4.85;1.30;;;6.20;99.90;;;;;;5006336;28;20030;-72
2023/04/02 10:51:47;;;;;;;6.45;1.13;;;6.20;99.90;;;;;;5005934;28;20022;-73
2023/04/02 10:54:30;;;;;;;3.13;0.80;;;6.20;99.90;;;;;;4999268;28;20029;-72
2023/04/02 10:57:03;;;;;;;;;;;6.20;99.90;;;;;;5005948;28;20022;-72
2023/04/02 10:59:33;;;;;;;2.25;0.70;;;6.20;99.90;;;;;;5012365;28;19917;-72
2023/04/02 11:02:21;;;;;;;2.15;0.60;;;6.30;99.90;;;;;;5010239;28;20030;-72
2023/04/02 11:04:48;;;;;;;4.07;0.70;;;6.30;99.90;;;;;;5008218;28;20022;-72
2023/04/02 11:07:19;;;;;;;2.92;0.70;;;6.20;99.90;;;;;;4998268;28;20021;-73
2023/04/02 11:09:49;;;;;;;3.13;0.82;;;6.10;99.90;;;;;;5012373;28;20033;-72
2023/04/02 11:12:22;;;;;;;2.65;0.55;;;5.90;99.90;;;;;;5002977;28;20026;-73
2023/04/02 11:14:49;;;;;;;1.92;0.70;;;5.80;99.90;;;;;;5007349;28;20081;-72
2023/04/02 11:17:18;;;;;;;3.83;0.90;;;5.70;99.90;;;;;;5004776;28;20022;-72
2023/04/02 11:19:44;;;;;;;2.78;0.60;;;5.80;99.90;;;;;;5006071;28;20044;-72
2023/04/02 11:22:22;;;;;;;3.15;0.60;;;5.90;99.90;;;;;;5010623;28;20137;-72
2023/04/02 11:24:48;;;;;;;2.88;0.70;;;6.10;99.90;;;;;;5010176;28;20061;-72
2023/04/02 11:27:20;;;;;;;4.75;0.60;;;6.10;99.90;;;;;;5030725;28;20036;-72
2023/04/02 11:30:10;;;;;;;3.03;0.70;;;6.30;99.90;;;;;;5004664;28;20105;-72
2023/04/02 11:32:41;;;;;;;3.92;0.80;;;6.40;99.90;;;;;;5011543;28;20467;-72
2023/04/02 11:35:29;;;;;;;4.60;0.80;;;6.50;99.90;;;;;;5007069;28;20041;-72
2023/04/02 11:38:17;;;;;;;5.43;0.80;;;6.80;99.90;;;;;;5029176;28;20060;-72
2023/04/02 11:40:50;;;;;;;6.85;0.70;;;7.10;99.90;;;;;;5004915;28;20049;-72
2023/04/02 11:43:31;;;;;;;2.50;0.60;;;7.40;99.90;;;;;;5003871;28;20026;-72
2023/04/02 11:46:17;;;;;;;6.18;1.02;;;7.60;99.90;;;;;;5011254;28;20076;-72
2023/04/02 11:48:43;;;;;;;4.63;0.80;;;7.70;99.90;;;;;;4997188;28;20030;-72
2023/04/02 11:51:23;;;;;;;4.97;0.60;;;7.70;99.90;;;;;;4999697;28;20028;-72
2023/04/02 11:53:52;;;;;;;2.22;0.80;;;7.80;99.90;;;;;;5043062;28;20386;-72
2023/04/02 11:56:35;;;;;;;3.80;0.60;;;7.60;99.90;;;;;;5009275;28;20022;-72
2023/04/02 11:59:06;;;;;;;3.08;0.60;;;7.60;99.90;;;;;;5010160;28;20046;-72
2023/04/02 12:01:58;;;;;;;3.63;0.70;;;7.60;99.90;;;;;;5001609;28;20092;-73
2023/04/02 12:04:44;;;;;;;4.65;0.70;;;7.80;99.90;;;;;;5009604;28;20121;-73
2023/04/02 12:07:16;;;;;;;4.55;0.82;;;8.00;99.90;;;;;;5009328;28;20034;-73
2023/04/02 12:09:58;;;;;;;5.43;0.88;;;8.10;99.90;;;;;;5011855;28;20046;-71
2023/04/02 12:12:28;;;;;;;5.78;0.80;;;8.10;99.90;;;;;;5002728;28;20050;-72
2023/04/02 12:14:58;;;;;;;3.95;0.60;;;8.10;99.90;;;;;;4997254;28;20053;-72
2023/04/02 12:17:35;;;;;;;4.32;0.82;;;8.10;99.90;;;;;;5004100;28;20038;-72
2023/04/02 12:20:08;;;;;;;4.32;0.70;;;8.10;99.90;;;;;;5001066;28;20570;-72
2023/04/02 12:22:44;;;;;;;;;;;8.00;99.90;;;;;;5002741;28;20022;-71
2023/04/02 12:25:28;;;;;;;3.25;0.60;;;7.90;99.90;;;;;;5000751;28;20384;-73
2023/04/02 12:28:27;;;;;;;5.97;0.80;;;7.90;99.90;;;;;;5011006;28;20053;-72
2023/04/02 12:31:03;;;;;;;3.03;0.68;;;8.00;99.90;;;;;;5001476;28;20046;-72
2023/04/02 12:33:35;;;;;;;3.10;0.68;;;8.10;99.90;;;;;;5004894;28;20033;-72
2023/04/02 12:36:15;;;;;;;2.85;0.65;;;8.20;99.90;;;;;;5001899;28;20034;-72
2023/04/02 12:38:49;;;;;;;4.53;1.02;;;8.30;99.90;;;;;;5002070;28;20049;-72
2023/04/02 12:41:28;;;;;;;5.30;0.93;;;8.40;99.90;;;;;;4999084;28;20026;-72
2023/04/02 12:44:17;;;;;;;3.25;0.70;;;8.40;99.90;;;;;;5008865;28;20105;-72
2023/04/02 12:46:45;;;;;;;3.42;1.00;;;8.40;99.90;;;;;;5011363;28;20482;-72
2023/04/02 12:49:40;;;;;;;4.45;0.70;;;8.50;99.90;;;;;;5014511;28;20026;-72
2023/04/02 12:52:12;;;;;;;3.13;0.70;;;8.50;99.90;;;;;;5012716;28;20049;-72
2023/04/02 12:54:57;;;;;;;9.85;1.00;;;8.60;99.90;;;;;;5023640;28;21766;-72
2023/04/02 12:57:25;;;;;;;5.35;0.80;;;8.70;99.90;;;;;;5014444;28;20045;-72
2023/04/02 13:00:21;;;;;;;3.17;0.75;;;8.70;99.90;;;;;;4996803;28;20034;-72
2023/04/02 13:03:15;;;;;;;2.25;0.68;;;8.80;99.90;;;;;;4996495;28;20549;-72
2023/04/02 13:05:47;;;;;;;2.95;0.73;;;8.90;99.90;;;;;;5013859;28;20383;-72
2023/04/02 13:08:21;;;;;;;4.03;0.73;;;8.90;99.90;;;;;;5014019;28;20014;-72
2023/04/02 13:10:52;;;;;;;3.78;0.60;;;9.00;99.90;;;;;;5013119;28;20065;-72
2023/04/02 13:13:26;;;;;;;2.50;0.70;;;9.00;99.90;;;;;;5013458;28;20052;-72
2023/04/02 13:16:24;;;;;;;2.20;0.70;;;9.00;99.90;;;;;;5014212;28;20156;-72
2023/04/02 13:18:50;;;;;;;3.35;0.80;;;9.10;99.90;;;;;;5010819;28;20081;-72
2023/04/02 13:21:15;;;;;;;6.15;0.98;;;9.10;99.90;;;;;;5014138;28;20446;-72
2023/04/02 13:23:41;;;;;;;3.55;0.73;;;9.10;99.90;;;;;;5011686;28;20030;-72
2023/04/02 13:26:26;;;;;;;1.60;0.60;;;9.10;99.90;;;;;;5014165;28;20018;-72
2023/04/02 13:29:14;;;;;;;2.78;0.68;;;9.10;99.90;;;;;;5014256;28;20026;-72
2023/04/02 13:31:40;;;;;;;4.20;1.15;;;9.10;99.90;;;;;;5018515;28;20010;-72
2023/04/02 13:34:05;;;;;;;4.40;0.98;;;9.10;99.90;;;;;;5017541;28;20096;-72
2023/04/02 13:36:31;;;;;;;1.67;0.70;;;9.00;99.90;;;;;;5013776;28;20022;-72